sensor_id;sensor_type;location;lat;lon;timestamp;temperature;humidity
18297;DHT22;18066;52.106;5.534;2022-09-13T00:01:18;19.00;99.90
18297;DHT22;18066;52.106;5.534;2022-09-13T00:03:44;18.90;99.90
18297;DHT22;18066;52.106;5.534;2022-09-13T00:06:14;19.00;99.90
18297;DHT22;18066;52.106;5.534;2022-09-13T00:08:41;18.90;99.90
18297;DHT22;18066;52.106;5.534;2022-09-13T00:11:14;18.90;99.90
18297;DHT22;18066;52.106;5.534;2022-09-13T00:13:43;18.90;99.90
18297;DHT22;18066;52.106;5.534;2022-09-13T00:16:11;18.90;99.90
18297;DHT22;18066;52.106;5.534;2022-09-13T00:18:38;18.90;99.90
18297;DHT22;18066;52.106;5.534;2022-09-13T00:21:07;18.90;99.90
18297;DHT22;18066;52.106;5.534;2022-09-13T00:23:35;18.90;99.90
18297;DHT22;18066;52.106;5.534;2022-09-13T00:26:04;18.90;99.90
18297;DHT22;18066;52.106;5.534;2022-09-13T00:28:31;18.90;99.90
18297;DHT22;18066;52.106;5.534;2022-09-13T00:31:00;18.90;99.90
18297;DHT22;18066;52.106;5.534;2022-09-13T00:33:27;18.90;99.90
18297;DHT22;18066;52.106;5.534;2022-09-13T00:35:53;18.90;99.90
18297;DHT22;18066;52.106;5.534;2022-09-13T00:38:20;18.90;99.90
18297;DHT22;18066;52.106;5.534;2022-09-13T00:40:47;18.90;99.90
18297;DHT22;18066;52.106;5.534;2022-09-13T00:43:17;18.90;99.90
18297;DHT22;18066;52.106;5.534;2022-09-13T00:45:44;18.90;99.90
18297;DHT22;18066;52.106;5.534;2022-09-13T00:48:18;18.90;99.90
18297;DHT22;18066;52.106;5.534;2022-09-13T00:50:47;18.80;99.90
18297;DHT22;18066;52.106;5.534;2022-09-13T00:53:18;18.80;99.90
18297;DHT22;18066;52.106;5.534;2022-09-13T00:55:50;18.80;99.90
18297;DHT22;18066;52.106;5.534;2022-09-13T00:58:21;18.80;99.90
18297;DHT22;18066;52.106;5.534;2022-09-13T01:00:49;18.80;99.90
18297;DHT22;18066;52.106;5.534;2022-09-13T01:03:21;18.80;99.90
18297;DHT22;18066;52.106;5.534;2022-09-13T01:05:52;18.80;99.90
18297;DHT22;18066;52.106;5.534;2022-09-13T01:08:20;18.80;99.90
18297;DHT22;18066;52.106;5.534;2022-09-13T01:10:48;18.80;99.90
18297;DHT22;18066;52.106;5.534;2022-09-13T01:13:18;18.80;99.90
18297;DHT22;18066;52.106;5.534;2022-09-13T01:15:45;18.80;99.90
18297;DHT22;18066;52.106;5.534;2022-09-13T01:18:12;18.70;99.90
18297;DHT22;18066;52.106;5.534;2022-09-13T01:20:47;18.70;99.90
18297;DHT22;18066;52.106;5.534;2022-09-13T01:23:42;18.70;99.90
18297;DHT22;18066;52.106;5.534;2022-09-13T01:26:34;18.60;99.90
18297;DHT22;18066;52.106;5.534;2022-09-13T01:29:24;18.60;99.90
18297;DHT22;18066;52.106;5.534;2022-09-13T01:32:01;18.50;99.90
18297;DHT22;18066;52.106;5.534;2022-09-13T01:34:38;18.50;99.90
18297;DHT22;18066;52.106;5.534;2022-09-13T01:37:23;18.60;99.90
18297;DHT22;18066;52.106;5.534;2022-09-13T01:40:03;18.60;99.90
18297;DHT22;18066;52.106;5.534;2022-09-13T01:42:41;18.50;99.90
18297;DHT22;18066;52.106;5.534;2022-09-13T01:45:19;18.60;99.90
18297;DHT22;18066;52.106;5.534;2022-09-13T01:47:53;18.50;99.90
18297;DHT22;18066;52.106;5.534;2022-09-13T01:50:28;18.60;99.90
18297;DHT22;18066;52.106;5.534;2022-09-13T01:53:02;18.50;99.90
18297;DHT22;18066;52.106;5.534;2022-09-13T01:55:34;18.40;99.90
18297;DHT22;18066;52.106;5.534;2022-09-13T01:58:08;18.40;99.90
18297;DHT22;18066;52.106;5.534;2022-09-13T02:00:45;18.40;99.90
18297;DHT22;18066;52.106;5.534;2022-09-13T02:03:17;18.40;99.90
18297;DHT22;18066;52.106;5.534;2022-09-13T02:05:50;18.40;99.90
18297;DHT22;18066;52.106;5.534;2022-09-13T02:08:23;18.50;99.90
18297;DHT22;18066;52.106;5.534;2022-09-13T02:10:57;18.50;99.90
18297;DHT22;18066;52.106;5.534;2022-09-13T02:13:28;18.50;99.90
18297;DHT22;18066;52.106;5.534;2022-09-13T02:16:02;18.50;99.90
18297;DHT22;18066;52.106;5.534;2022-09-13T02:18:37;18.50;99.90
18297;DHT22;18066;52.106;5.534;2022-09-13T02:21:08;18.60;99.90
18297;DHT22;18066;52.106;5.534;2022-09-13T02:23:40;18.50;99.90
18297;DHT22;18066;52.106;5.534;2022-09-13T02:26:11;18.50;99.90
18297;DHT22;18066;52.106;5.534;2022-09-13T02:28:46;18.50;99.90
18297;DHT22;18066;52.106;5.534;2022-09-13T02:31:17;18.50;99.90
18297;DHT22;18066;52.106;5.534;2022-09-13T02:33:50;18.50;99.90
18297;DHT22;18066;52.106;5.534;2022-09-13T02:36:21;18.50;99.90
18297;DHT22;18066;52.106;5.534;2022-09-13T02:38:51;18.50;99.90
18297;DHT22;18066;52.106;5.534;2022-09-13T02:41:24;18.60;99.90
18297;DHT22;18066;52.106;5.534;2022-09-13T02:44:00;18.50;99.90
18297;DHT22;18066;52.106;5.534;2022-09-13T02:46:52;18.50;99.90
18297;DHT22;18066;52.106;5.534;2022-09-13T02:49:27;18.50;99.90
18297;DHT22;18066;52.106;5.534;2022-09-13T02:52:02;18.60;99.90
18297;DHT22;18066;52.106;5.534;2022-09-13T02:54:37;18.50;99.90
18297;DHT22;18066;52.106;5.534;2022-09-13T02:57:07;18.50;99.90
18297;DHT22;18066;52.106;5.534;2022-09-13T02:59:37;18.50;99.90
18297;DHT22;18066;52.106;5.534;2022-09-13T03:02:07;18.40;99.90
18297;DHT22;18066;52.106;5.534;2022-09-13T03:04:36;18.40;99.90
18297;DHT22;18066;52.106;5.534;2022-09-13T03:07:05;18.60;99.90
18297;DHT22;18066;52.106;5.534;2022-09-13T03:09:32;18.50;99.90
18297;DHT22;18066;52.106;5.534;2022-09-13T03:12:14;18.50;99.90
18297;DHT22;18066;52.106;5.534;2022-09-13T03:14:51;18.40;99.90
18297;DHT22;18066;52.106;5.534;2022-09-13T03:17:31;18.40;99.90
18297;DHT22;18066;52.106;5.534;2022-09-13T03:20:07;18.40;99.90
18297;DHT22;18066;52.106;5.534;2022-09-13T03:23:01;18.40;99.90
18297;DHT22;18066;52.106;5.534;2022-09-13T03:25:40;18.40;99.90
18297;DHT22;18066;52.106;5.534;2022-09-13T03:28:16;18.40;99.90
18297;DHT22;18066;52.106;5.534;2022-09-13T03:30:49;18.40;99.90
18297;DHT22;18066;52.106;5.534;2022-09-13T03:33:24;18.40;99.90
18297;DHT22;18066;52.106;5.534;2022-09-13T03:36:01;18.40;99.90
18297;DHT22;18066;52.106;5.534;2022-09-13T03:38:34;18.40;99.90
18297;DHT22;18066;52.106;5.534;2022-09-13T03:41:06;18.40;99.90
18297;DHT22;18066;52.106;5.534;2022-09-13T03:43:38;18.40;99.90
18297;DHT22;18066;52.106;5.534;2022-09-13T03:46:08;18.40;99.90
18297;DHT22;18066;52.106;5.534;2022-09-13T03:48:39;18.40;99.90
18297;DHT22;18066;52.106;5.534;2022-09-13T03:51:07;18.40;99.90
18297;DHT22;18066;52.106;5.534;2022-09-13T03:53:39;18.40;99.90
18297;DHT22;18066;52.106;5.534;2022-09-13T03:56:12;18.40;99.90
18297;DHT22;18066;52.106;5.534;2022-09-13T03:58:39;18.40;99.90
18297;DHT22;18066;52.106;5.534;2022-09-13T04:01:06;18.40;99.90
18297;DHT22;18066;52.106;5.534;2022-09-13T04:03:32;18.40;99.90
18297;DHT22;18066;52.106;5.534;2022-09-13T04:05:59;18.40;99.90
18297;DHT22;18066;52.106;5.534;2022-09-13T04:08:27;18.40;99.90
18297;DHT22;18066;52.106;5.534;2022-09-13T04:10:54;18.40;99.90
18297;DHT22;18066;52.106;5.534;2022-09-13T04:13:20;18.40;99.90
18297;DHT22;18066;52.106;5.534;2022-09-13T04:15:47;18.40;99.90
18297;DHT22;18066;52.106;5.534;2022-09-13T04:18:14;18.50;99.90
18297;DHT22;18066;52.106;5.534;2022-09-13T04:20:42;18.40;99.90
18297;DHT22;18066;52.106;5.534;2022-09-13T04:23:09;18.40;99.90
18297;DHT22;18066;52.106;5.534;2022-09-13T04:25:38;18.40;99.90
18297;DHT22;18066;52.106;5.534;2022-09-13T04:28:05;18.40;99.90
18297;DHT22;18066;52.106;5.534;2022-09-13T04:30:32;18.40;99.90
18297;DHT22;18066;52.106;5.534;2022-09-13T04:32:59;18.40;99.90
18297;DHT22;18066;52.106;5.534;2022-09-13T04:35:26;18.40;99.90
18297;DHT22;18066;52.106;5.534;2022-09-13T04:37:54;18.40;99.90
18297;DHT22;18066;52.106;5.534;2022-09-13T04:40:21;18.50;99.90
18297;DHT22;18066;52.106;5.534;2022-09-13T04:42:49;18.40;99.90
18297;DHT22;18066;52.106;5.534;2022-09-13T04:45:16;18.40;99.90
18297;DHT22;18066;52.106;5.534;2022-09-13T04:47:43;18.40;99.90
18297;DHT22;18066;52.106;5.534;2022-09-13T04:50:09;18.40;99.90
18297;DHT22;18066;52.106;5.534;2022-09-13T04:52:36;18.40;99.90
18297;DHT22;18066;52.106;5.534;2022-09-13T04:55:03;18.40;99.90
18297;DHT22;18066;52.106;5.534;2022-09-13T04:57:30;18.40;99.90
18297;DHT22;18066;52.106;5.534;2022-09-13T04:59:58;18.40;99.90
18297;DHT22;18066;52.106;5.534;2022-09-13T05:02:25;18.40;99.90
18297;DHT22;18066;52.106;5.534;2022-09-13T05:04:52;18.50;99.90
18297;DHT22;18066;52.106;5.534;2022-09-13T05:07:18;18.40;99.90
18297;DHT22;18066;52.106;5.534;2022-09-13T05:09:45;18.50;99.90
18297;DHT22;18066;52.106;5.534;2022-09-13T05:12:11;18.50;99.90
18297;DHT22;18066;52.106;5.534;2022-09-13T05:14:38;18.40;99.90
18297;DHT22;18066;52.106;5.534;2022-09-13T05:17:06;18.60;99.90
18297;DHT22;18066;52.106;5.534;2022-09-13T05:19:33;18.50;99.90
18297;DHT22;18066;52.106;5.534;2022-09-13T05:22:00;18.60;99.90
18297;DHT22;18066;52.106;5.534;2022-09-13T05:24:27;18.50;99.90
18297;DHT22;18066;52.106;5.534;2022-09-13T05:26:54;18.60;99.90
18297;DHT22;18066;52.106;5.534;2022-09-13T05:29:20;18.60;99.90
18297;DHT22;18066;52.106;5.534;2022-09-13T05:31:47;18.60;99.90
18297;DHT22;18066;52.106;5.534;2022-09-13T05:34:16;18.60;99.90
18297;DHT22;18066;52.106;5.534;2022-09-13T05:36:44;18.60;99.90
18297;DHT22;18066;52.106;5.534;2022-09-13T05:39:12;18.60;99.90
18297;DHT22;18066;52.106;5.534;2022-09-13T05:41:39;18.60;99.90
18297;DHT22;18066;52.106;5.534;2022-09-13T05:44:05;18.60;99.90
18297;DHT22;18066;52.106;5.534;2022-09-13T05:46:32;18.70;99.90
18297;DHT22;18066;52.106;5.534;2022-09-13T05:48:59;18.70;99.90
18297;DHT22;18066;52.106;5.534;2022-09-13T05:51:27;18.70;99.90
18297;DHT22;18066;52.106;5.534;2022-09-13T05:53:54;18.70;99.90
18297;DHT22;18066;52.106;5.534;2022-09-13T05:56:23;18.80;99.90
18297;DHT22;18066;52.106;5.534;2022-09-13T05:58:51;18.80;99.90
18297;DHT22;18066;52.106;5.534;2022-09-13T06:01:20;18.80;99.90
18297;DHT22;18066;52.106;5.534;2022-09-13T06:03:48;18.90;99.90
18297;DHT22;18066;52.106;5.534;2022-09-13T06:06:15;18.90;99.90
18297;DHT22;18066;52.106;5.534;2022-09-13T06:08:43;18.90;99.90
18297;DHT22;18066;52.106;5.534;2022-09-13T06:11:12;19.00;99.90
18297;DHT22;18066;52.106;5.534;2022-09-13T06:13:40;19.00;99.90
18297;DHT22;18066;52.106;5.534;2022-09-13T06:16:09;19.00;99.90
18297;DHT22;18066;52.106;5.534;2022-09-13T06:18:37;19.00;99.90
18297;DHT22;18066;52.106;5.534;2022-09-13T06:21:07;19.00;99.90
18297;DHT22;18066;52.106;5.534;2022-09-13T06:23:34;19.00;99.90
18297;DHT22;18066;52.106;5.534;2022-09-13T06:26:04;19.00;99.90
18297;DHT22;18066;52.106;5.534;2022-09-13T06:28:31;19.10;99.90
18297;DHT22;18066;52.106;5.534;2022-09-13T06:31:00;19.20;99.90
18297;DHT22;18066;52.106;5.534;2022-09-13T06:33:27;19.20;99.90
18297;DHT22;18066;52.106;5.534;2022-09-13T06:35:53;19.30;99.90
18297;DHT22;18066;52.106;5.534;2022-09-13T06:38:20;19.40;99.90
18297;DHT22;18066;52.106;5.534;2022-09-13T06:40:47;19.40;99.90
18297;DHT22;18066;52.106;5.534;2022-09-13T06:43:15;19.50;99.90
18297;DHT22;18066;52.106;5.534;2022-09-13T06:45:42;19.50;99.90
18297;DHT22;18066;52.106;5.534;2022-09-13T06:48:08;19.50;99.90
18297;DHT22;18066;52.106;5.534;2022-09-13T06:50:35;19.40;99.90
18297;DHT22;18066;52.106;5.534;2022-09-13T06:53:02;19.50;99.90
18297;DHT22;18066;52.106;5.534;2022-09-13T06:55:28;19.50;99.90
18297;DHT22;18066;52.106;5.534;2022-09-13T06:57:55;19.50;99.90
18297;DHT22;18066;52.106;5.534;2022-09-13T07:00:23;19.50;99.90
18297;DHT22;18066;52.106;5.534;2022-09-13T07:02:50;19.60;99.90
18297;DHT22;18066;52.106;5.534;2022-09-13T07:05:17;19.60;99.90
18297;DHT22;18066;52.106;5.534;2022-09-13T07:07:45;19.60;99.90
18297;DHT22;18066;52.106;5.534;2022-09-13T07:10:12;19.60;99.90
18297;DHT22;18066;52.106;5.534;2022-09-13T07:12:39;19.70;99.90
18297;DHT22;18066;52.106;5.534;2022-09-13T07:15:07;19.70;99.90
18297;DHT22;18066;52.106;5.534;2022-09-13T07:17:35;19.80;99.90
18297;DHT22;18066;52.106;5.534;2022-09-13T07:20:02;19.80;99.90
18297;DHT22;18066;52.106;5.534;2022-09-13T07:22:31;19.90;99.90
18297;DHT22;18066;52.106;5.534;2022-09-13T07:24:58;19.80;99.90
18297;DHT22;18066;52.106;5.534;2022-09-13T07:27:26;19.80;99.90
18297;DHT22;18066;52.106;5.534;2022-09-13T07:29:52;19.80;99.90
18297;DHT22;18066;52.106;5.534;2022-09-13T07:32:19;19.90;99.90
18297;DHT22;18066;52.106;5.534;2022-09-13T07:34:49;19.90;99.90
18297;DHT22;18066;52.106;5.534;2022-09-13T07:37:15;20.10;99.90
18297;DHT22;18066;52.106;5.534;2022-09-13T07:39:42;20.10;99.90
18297;DHT22;18066;52.106;5.534;2022-09-13T07:42:09;20.20;99.90
18297;DHT22;18066;52.106;5.534;2022-09-13T07:44:35;20.30;99.90
18297;DHT22;18066;52.106;5.534;2022-09-13T07:47:02;20.40;99.90
18297;DHT22;18066;52.106;5.534;2022-09-13T07:49:29;20.50;99.90
18297;DHT22;18066;52.106;5.534;2022-09-13T07:51:57;20.60;99.90
18297;DHT22;18066;52.106;5.534;2022-09-13T07:54:24;20.70;99.90
18297;DHT22;18066;52.106;5.534;2022-09-13T07:56:50;20.80;99.90
18297;DHT22;18066;52.106;5.534;2022-09-13T07:59:18;21.00;99.90
18297;DHT22;18066;52.106;5.534;2022-09-13T08:01:46;21.00;99.90
18297;DHT22;18066;52.106;5.534;2022-09-13T08:04:15;21.10;99.90
18297;DHT22;18066;52.106;5.534;2022-09-13T08:06:45;21.30;99.90
18297;DHT22;18066;52.106;5.534;2022-09-13T08:09:14;21.30;99.90
18297;DHT22;18066;52.106;5.534;2022-09-13T08:11:43;21.40;99.90
18297;DHT22;18066;52.106;5.534;2022-09-13T08:14:12;21.40;99.90
18297;DHT22;18066;52.106;5.534;2022-09-13T08:16:39;21.60;99.90
18297;DHT22;18066;52.106;5.534;2022-09-13T08:19:06;21.80;99.90
18297;DHT22;18066;52.106;5.534;2022-09-13T08:21:34;21.90;99.90
18297;DHT22;18066;52.106;5.534;2022-09-13T08:24:02;21.90;99.90
18297;DHT22;18066;52.106;5.534;2022-09-13T08:26:32;22.00;99.90
18297;DHT22;18066;52.106;5.534;2022-09-13T08:29:02;22.10;99.90
18297;DHT22;18066;52.106;5.534;2022-09-13T08:31:29;22.00;99.90
18297;DHT22;18066;52.106;5.534;2022-09-13T08:33:57;22.10;99.90
18297;DHT22;18066;52.106;5.534;2022-09-13T08:36:24;22.20;99.90
18297;DHT22;18066;52.106;5.534;2022-09-13T08:38:52;22.40;99.90
18297;DHT22;18066;52.106;5.534;2022-09-13T08:42:04;22.50;99.90
18297;DHT22;18066;52.106;5.534;2022-09-13T08:44:34;22.50;99.90
18297;DHT22;18066;52.106;5.534;2022-09-13T08:47:14;22.40;99.90
18297;DHT22;18066;52.106;5.534;2022-09-13T08:49:49;22.40;99.90
18297;DHT22;18066;52.106;5.534;2022-09-13T08:52:27;22.30;99.90
18297;DHT22;18066;52.106;5.534;2022-09-13T08:54:54;22.30;99.90
18297;DHT22;18066;52.106;5.534;2022-09-13T08:57:27;22.40;99.90
18297;DHT22;18066;52.106;5.534;2022-09-13T09:00:03;22.60;99.90
18297;DHT22;18066;52.106;5.534;2022-09-13T09:02:47;22.70;99.90
18297;DHT22;18066;52.106;5.534;2022-09-13T09:05:19;22.70;99.90
18297;DHT22;18066;52.106;5.534;2022-09-13T09:07:48;22.60;99.90
18297;DHT22;18066;52.106;5.534;2022-09-13T09:10:20;22.70;99.90
18297;DHT22;18066;52.106;5.534;2022-09-13T09:12:53;22.70;99.90
18297;DHT22;18066;52.106;5.534;2022-09-13T09:15:23;22.60;99.90
18297;DHT22;18066;52.106;5.534;2022-09-13T09:17:55;22.50;99.90
18297;DHT22;18066;52.106;5.534;2022-09-13T09:20:28;22.60;99.90
18297;DHT22;18066;52.106;5.534;2022-09-13T09:23:00;22.70;99.90
18297;DHT22;18066;52.106;5.534;2022-09-13T09:25:28;22.80;99.90
18297;DHT22;18066;52.106;5.534;2022-09-13T09:27:57;22.90;99.90
18297;DHT22;18066;52.106;5.534;2022-09-13T09:30:29;22.80;99.90
18297;DHT22;18066;52.106;5.534;2022-09-13T09:33:10;22.50;99.90
18297;DHT22;18066;52.106;5.534;2022-09-13T09:35:48;22.30;99.90
18297;DHT22;18066;52.106;5.534;2022-09-13T09:38:35;22.30;99.90
18297;DHT22;18066;52.106;5.534;2022-09-13T09:41:05;22.30;99.90
18297;DHT22;18066;52.106;5.534;2022-09-13T09:43:38;22.40;99.90
18297;DHT22;18066;52.106;5.534;2022-09-13T09:46:08;22.60;99.90
18297;DHT22;18066;52.106;5.534;2022-09-13T09:48:40;22.70;99.90
18297;DHT22;18066;52.106;5.534;2022-09-13T09:51:10;22.70;99.90
18297;DHT22;18066;52.106;5.534;2022-09-13T09:53:41;22.80;99.90
18297;DHT22;18066;52.106;5.534;2022-09-13T09:56:23;23.00;99.90
18297;DHT22;18066;52.106;5.534;2022-09-13T09:58:52;23.40;99.90
18297;DHT22;18066;52.106;5.534;2022-09-13T10:01:22;23.40;99.90
18297;DHT22;18066;52.106;5.534;2022-09-13T10:04:02;23.50;99.90
18297;DHT22;18066;52.106;5.534;2022-09-13T10:06:30;23.60;99.90
18297;DHT22;18066;52.106;5.534;2022-09-13T10:09:00;23.70;99.90
18297;DHT22;18066;52.106;5.534;2022-09-13T10:11:42;23.80;99.90
18297;DHT22;18066;52.106;5.534;2022-09-13T10:14:38;23.50;99.90
18297;DHT22;18066;52.106;5.534;2022-09-13T10:17:18;23.30;99.90
18297;DHT22;18066;52.106;5.534;2022-09-13T10:19:54;23.20;99.90
18297;DHT22;18066;52.106;5.534;2022-09-13T10:22:22;23.30;99.90
18297;DHT22;18066;52.106;5.534;2022-09-13T10:24:49;23.40;99.90
18297;DHT22;18066;52.106;5.534;2022-09-13T10:27:22;23.50;99.90
18297;DHT22;18066;52.106;5.534;2022-09-13T10:29:53;23.60;99.90
18297;DHT22;18066;52.106;5.534;2022-09-13T10:32:24;23.70;99.90
18297;DHT22;18066;52.106;5.534;2022-09-13T10:34:51;23.70;99.90
18297;DHT22;18066;52.106;5.534;2022-09-13T10:37:21;23.60;99.90
18297;DHT22;18066;52.106;5.534;2022-09-13T10:39:58;23.60;99.90
18297;DHT22;18066;52.106;5.534;2022-09-13T10:42:27;23.70;99.90
18297;DHT22;18066;52.106;5.534;2022-09-13T10:44:56;23.80;99.90
18297;DHT22;18066;52.106;5.534;2022-09-13T10:47:27;23.80;99.90
18297;DHT22;18066;52.106;5.534;2022-09-13T10:49:56;23.80;99.90
18297;DHT22;18066;52.106;5.534;2022-09-13T10:52:29;23.60;99.90
18297;DHT22;18066;52.106;5.534;2022-09-13T10:55:24;23.60;99.90
18297;DHT22;18066;52.106;5.534;2022-09-13T10:57:52;23.50;99.90
18297;DHT22;18066;52.106;5.534;2022-09-13T11:00:22;23.40;99.90
18297;DHT22;18066;52.106;5.534;2022-09-13T11:03:14;23.40;99.90
18297;DHT22;18066;52.106;5.534;2022-09-13T11:05:51;23.50;99.90
18297;DHT22;18066;52.106;5.534;2022-09-13T11:08:27;23.60;99.90
18297;DHT22;18066;52.106;5.534;2022-09-13T11:11:04;23.80;99.90
18297;DHT22;18066;52.106;5.534;2022-09-13T11:13:54;23.90;99.90
18297;DHT22;18066;52.106;5.534;2022-09-13T11:16:37;24.00;99.90
18297;DHT22;18066;52.106;5.534;2022-09-13T11:22:26;24.20;99.90
18297;DHT22;18066;52.106;5.534;2022-09-13T11:25:16;24.20;99.90
18297;DHT22;18066;52.106;5.534;2022-09-13T11:27:54;24.10;99.90
18297;DHT22;18066;52.106;5.534;2022-09-13T11:30:25;24.00;99.90
18297;DHT22;18066;52.106;5.534;2022-09-13T11:33:12;24.10;99.90
18297;DHT22;18066;52.106;5.534;2022-09-13T11:35:53;24.30;99.90
18297;DHT22;18066;52.106;5.534;2022-09-13T11:38:44;24.30;99.90
18297;DHT22;18066;52.106;5.534;2022-09-13T11:41:21;24.20;99.90
18297;DHT22;18066;52.106;5.534;2022-09-13T11:44:17;24.20;99.90
18297;DHT22;18066;52.106;5.534;2022-09-13T11:46:54;24.30;99.90
18297;DHT22;18066;52.106;5.534;2022-09-13T11:49:41;24.40;99.90
18297;DHT22;18066;52.106;5.534;2022-09-13T11:52:19;24.30;99.90
18297;DHT22;18066;52.106;5.534;2022-09-13T11:54:56;24.10;99.90
18297;DHT22;18066;52.106;5.534;2022-09-13T11:57:32;24.00;99.90
18297;DHT22;18066;52.106;5.534;2022-09-13T12:00:04;24.00;99.90
18297;DHT22;18066;52.106;5.534;2022-09-13T12:02:38;24.10;99.90
18297;DHT22;18066;52.106;5.534;2022-09-13T12:05:12;24.10;99.90
18297;DHT22;18066;52.106;5.534;2022-09-13T12:07:43;24.20;99.90
18297;DHT22;18066;52.106;5.534;2022-09-13T12:10:14;24.20;99.90
18297;DHT22;18066;52.106;5.534;2022-09-13T12:12:43;24.20;99.90
18297;DHT22;18066;52.106;5.534;2022-09-13T12:15:16;24.20;99.90
18297;DHT22;18066;52.106;5.534;2022-09-13T12:17:46;24.30;99.90
18297;DHT22;18066;52.106;5.534;2022-09-13T12:20:21;24.40;99.90
18297;DHT22;18066;52.106;5.534;2022-09-13T12:22:52;24.50;99.90
18297;DHT22;18066;52.106;5.534;2022-09-13T12:25:23;24.50;99.90
18297;DHT22;18066;52.106;5.534;2022-09-13T12:27:56;24.50;99.90
18297;DHT22;18066;52.106;5.534;2022-09-13T12:30:30;24.40;99.90
18297;DHT22;18066;52.106;5.534;2022-09-13T12:32:58;24.40;99.90
18297;DHT22;18066;52.106;5.534;2022-09-13T12:35:29;24.40;99.90
18297;DHT22;18066;52.106;5.534;2022-09-13T12:38:12;24.30;99.90
18297;DHT22;18066;52.106;5.534;2022-09-13T12:41:00;24.30;99.90
18297;DHT22;18066;52.106;5.534;2022-09-13T12:43:49;24.30;99.90
18297;DHT22;18066;52.106;5.534;2022-09-13T12:46:49;24.30;99.90
18297;DHT22;18066;52.106;5.534;2022-09-13T12:49:40;24.30;99.90
18297;DHT22;18066;52.106;5.534;2022-09-13T12:52:25;24.20;99.90
18297;DHT22;18066;52.106;5.534;2022-09-13T12:58:00;24.10;99.90
18297;DHT22;18066;52.106;5.534;2022-09-13T13:00:32;24.10;99.90
18297;DHT22;18066;52.106;5.534;2022-09-13T13:03:04;24.00;99.90
18297;DHT22;18066;52.106;5.534;2022-09-13T13:05:38;24.00;99.90
18297;DHT22;18066;52.106;5.534;2022-09-13T13:08:24;24.10;99.90
18297;DHT22;18066;52.106;5.534;2022-09-13T13:11:00;24.10;99.90
18297;DHT22;18066;52.106;5.534;2022-09-13T13:13:35;24.20;99.90
18297;DHT22;18066;52.106;5.534;2022-09-13T13:16:22;24.00;99.90
18297;DHT22;18066;52.106;5.534;2022-09-13T13:18:50;24.00;99.90
18297;DHT22;18066;52.106;5.534;2022-09-13T13:21:35;23.90;99.90
18297;DHT22;18066;52.106;5.534;2022-09-13T13:24:40;23.90;99.90
18297;DHT22;18066;52.106;5.534;2022-09-13T13:27:33;23.80;99.90
18297;DHT22;18066;52.106;5.534;2022-09-13T13:33:15;23.60;99.90
18297;DHT22;18066;52.106;5.534;2022-09-13T13:35:43;23.50;99.90
18297;DHT22;18066;52.106;5.534;2022-09-13T13:43:49;23.70;99.90
18297;DHT22;18066;52.106;5.534;2022-09-13T13:46:25;23.80;99.90
18297;DHT22;18066;52.106;5.534;2022-09-13T13:48:52;23.70;99.90
18297;DHT22;18066;52.106;5.534;2022-09-13T13:51:21;23.70;99.90
18297;DHT22;18066;52.106;5.534;2022-09-13T13:53:55;23.70;99.90
18297;DHT22;18066;52.106;5.534;2022-09-13T13:56:44;23.60;99.90
18297;DHT22;18066;52.106;5.534;2022-09-13T13:59:15;23.60;99.90
18297;DHT22;18066;52.106;5.534;2022-09-13T14:01:47;23.60;99.90
18297;DHT22;18066;52.106;5.534;2022-09-13T14:04:50;23.60;99.90
18297;DHT22;18066;52.106;5.534;2022-09-13T14:10:22;23.70;99.90
18297;DHT22;18066;52.106;5.534;2022-09-13T14:13:17;23.80;99.90
18297;DHT22;18066;52.106;5.534;2022-09-13T14:15:54;23.80;99.90
18297;DHT22;18066;52.106;5.534;2022-09-13T14:18:46;23.90;99.90
18297;DHT22;18066;52.106;5.534;2022-09-13T14:21:21;24.00;99.90
18297;DHT22;18066;52.106;5.534;2022-09-13T14:23:48;24.00;99.90
18297;DHT22;18066;52.106;5.534;2022-09-13T14:26:15;24.00;99.90
18297;DHT22;18066;52.106;5.534;2022-09-13T14:28:43;24.10;99.90
18297;DHT22;18066;52.106;5.534;2022-09-13T14:31:16;24.10;99.90
18297;DHT22;18066;52.106;5.534;2022-09-13T14:33:44;24.20;99.90
18297;DHT22;18066;52.106;5.534;2022-09-13T14:36:17;24.10;99.90
18297;DHT22;18066;52.106;5.534;2022-09-13T14:38:49;23.90;99.90
18297;DHT22;18066;52.106;5.534;2022-09-13T14:41:18;23.80;99.90
18297;DHT22;18066;52.106;5.534;2022-09-13T14:43:47;23.60;99.90
18297;DHT22;18066;52.106;5.534;2022-09-13T14:46:17;23.70;99.90
18297;DHT22;18066;52.106;5.534;2022-09-13T14:48:47;23.70;99.90
18297;DHT22;18066;52.106;5.534;2022-09-13T14:51:19;24.10;99.90
18297;DHT22;18066;52.106;5.534;2022-09-13T14:53:50;25.30;99.90
18297;DHT22;18066;52.106;5.534;2022-09-13T14:56:23;26.60;99.90
18297;DHT22;18066;52.106;5.534;2022-09-13T14:58:54;27.80;99.90
18297;DHT22;18066;52.106;5.534;2022-09-13T15:01:26;28.90;99.90
18297;DHT22;18066;52.106;5.534;2022-09-13T15:03:55;29.40;99.90
18297;DHT22;18066;52.106;5.534;2022-09-13T15:06:24;29.90;99.90
18297;DHT22;18066;52.106;5.534;2022-09-13T15:08:52;29.80;99.90
18297;DHT22;18066;52.106;5.534;2022-09-13T15:11:31;30.00;99.90
18297;DHT22;18066;52.106;5.534;2022-09-13T15:14:23;30.10;99.90
18297;DHT22;18066;52.106;5.534;2022-09-13T15:16:52;29.40;99.90
18297;DHT22;18066;52.106;5.534;2022-09-13T15:19:30;29.30;99.90
18297;DHT22;18066;52.106;5.534;2022-09-13T15:22:24;29.00;99.90
18297;DHT22;18066;52.106;5.534;2022-09-13T15:24:55;29.60;99.90
18297;DHT22;18066;52.106;5.534;2022-09-13T15:27:25;29.40;99.90
18297;DHT22;18066;52.106;5.534;2022-09-13T15:29:55;29.00;99.90
18297;DHT22;18066;52.106;5.534;2022-09-13T15:32:31;28.10;99.90
18297;DHT22;18066;52.106;5.534;2022-09-13T15:35:00;27.50;99.90
18297;DHT22;18066;52.106;5.534;2022-09-13T15:37:34;27.30;99.90
18297;DHT22;18066;52.106;5.534;2022-09-13T15:40:10;26.90;99.90
18297;DHT22;18066;52.106;5.534;2022-09-13T15:42:38;26.70;99.90
18297;DHT22;18066;52.106;5.534;2022-09-13T15:45:07;27.20;99.90
18297;DHT22;18066;52.106;5.534;2022-09-13T15:47:34;28.00;99.90
18297;DHT22;18066;52.106;5.534;2022-09-13T15:50:00;28.50;99.90
18297;DHT22;18066;52.106;5.534;2022-09-13T15:52:27;28.00;99.90
18297;DHT22;18066;52.106;5.534;2022-09-13T15:54:54;27.30;99.90
18297;DHT22;18066;52.106;5.534;2022-09-13T15:57:23;26.60;99.90
18297;DHT22;18066;52.106;5.534;2022-09-13T15:59:52;26.00;99.90
18297;DHT22;18066;52.106;5.534;2022-09-13T16:02:23;25.50;99.90
18297;DHT22;18066;52.106;5.534;2022-09-13T16:04:51;25.20;99.90
18297;DHT22;18066;52.106;5.534;2022-09-13T16:07:18;24.90;99.90
18297;DHT22;18066;52.106;5.534;2022-09-13T16:09:45;24.50;99.90
18297;DHT22;18066;52.106;5.534;2022-09-13T16:12:12;24.00;99.90
18297;DHT22;18066;52.106;5.534;2022-09-13T16:14:39;23.80;99.90
18297;DHT22;18066;52.106;5.534;2022-09-13T16:17:09;23.60;99.90
18297;DHT22;18066;52.106;5.534;2022-09-13T16:19:38;23.30;99.90